Time;durP1;ratioP1;P1;durP2;ratioP2;P2;SDS_P1;SDS_P2;PMS_P1;PMS_P2;Temp;Humidity;BMP_temperature;BMP_pressure;BME280_temperature;BME280_humidity;BME280_pressure;Samples;Min_cycle;Max_cycle;Signal;HPM_P1;HPM_P2
2023/05/16 00:00:27;;;;;;;15.77;3.30;;;;;;;12.93;59.18;101799.69;5013309;28;20434;-63
2023/05/16 00:02:52;;;;;;;18.25;3.20;;;;;;;12.93;59.24;101800.56;5012558;28;20018;-63
2023/05/16 00:05:18;;;;;;;18.42;3.70;;;;;;;12.92;59.42;101798.03;5012111;28;20030;-63
2023/05/16 00:07:45;;;;;;;15.95;3.25;;;;;;;12.92;59.15;101801.66;5015636;28;20809;-63
2023/05/16 00:10:11;;;;;;;16.05;3.47;;;;;;;12.81;59.18;101798.88;5010705;28;20025;-63
2023/05/16 00:12:38;;;;;;;17.08;3.72;;;;;;;12.88;59.36;101806.00;5012419;28;20088;-63
2023/05/16 00:15:11;;;;;;;20.27;4.32;;;;;;;12.78;59.05;101801.09;5012499;28;20050;-63
2023/05/16 00:17:36;;;;;;;16.70;3.08;;;;;;;12.81;59.25;101801.66;5013133;28;20037;-63
2023/05/16 00:20:09;;;;;;;14.80;3.13;;;;;;;12.80;59.18;101811.13;5012081;28;20466;-63
2023/05/16 00:22:35;;;;;;;17.05;2.75;;;;;;;12.78;58.79;101812.22;5021426;28;20033;-63
2023/05/16 00:25:00;;;;;;;15.52;3.55;;;;;;;12.81;58.98;101808.13;5018634;28;20026;-63
2023/05/16 00:27:26;;;;;;;15.82;3.50;;;;;;;12.67;59.18;101806.66;5008340;28;20307;-63
2023/05/16 00:29:51;;;;;;;19.48;3.47;;;;;;;12.70;58.80;101806.19;5030468;28;20037;-63
2023/05/16 00:32:17;;;;;;;17.83;3.33;;;;;;;12.60;59.14;101803.16;5032437;28;20112;-63
2023/05/16 00:34:43;;;;;;;14.65;3.33;;;;;;;12.68;58.83;101811.13;5031081;28;20151;-63
2023/05/16 00:37:08;;;;;;;17.10;3.42;;;;;;;12.62;58.63;101803.78;5032313;28;20052;-63
2023/05/16 00:39:33;;;;;;;15.13;3.17;;;;;;;12.53;58.84;101798.56;5032230;28;20030;-63
2023/05/16 00:41:59;;;;;;;12.73;3.13;;;;;;;12.58;58.81;101802.56;5029428;28;20540;-63
2023/05/16 00:44:24;;;;;;;14.73;3.50;;;;;;;12.48;58.76;101803.16;5031821;28;20040;-63
2023/05/16 00:46:50;;;;;;;14.40;3.40;;;;;;;12.46;59.10;101803.41;5012210;28;20059;-64
2023/05/16 00:49:16;;;;;;;16.67;3.30;;;;;;;12.47;58.77;101801.47;5012334;28;20048;-63
2023/05/16 00:51:41;;;;;;;18.45;3.33;;;;;;;12.35;58.79;101803.41;5011866;28;20041;-63
2023/05/16 00:54:06;;;;;;;15.90;3.55;;;;;;;12.39;58.84;101811.03;5011142;28;20030;-64
2023/05/16 00:56:32;;;;;;;13.00;3.08;;;;;;;12.38;58.82;101803.78;5012475;28;20492;-64
2023/05/16 00:58:58;;;;;;;16.52;3.10;;;;;;;12.33;58.66;101809.22;5018351;28;20530;-63
2023/05/16 01:01:26;;;;;;;14.02;3.08;;;;;;;12.30;58.87;101812.50;5011482;28;20057;-63
2023/05/16 01:03:51;;;;;;;12.90;2.78;;;;;;;12.34;58.86;101810.06;5016406;28;20110;-64
2023/05/16 01:06:17;;;;;;;16.33;3.08;;;;;;;12.32;58.62;101810.31;5031665;28;20033;-63
2023/05/16 01:08:42;;;;;;;20.83;3.50;;;;;;;12.30;58.40;101809.72;5030592;28;20134;-63
2023/05/16 01:11:28;;;;;;;15.70;3.08;;;;;;;12.34;58.75;101819.28;5022020;28;20546;-64
2023/05/16 01:14:11;;;;;;;15.63;2.67;;;;;;;12.20;58.26;101812.25;5020412;28;20366;-64
2023/05/16 01:16:40;;;;;;;;;;;;;;;12.46;58.47;101825.69;5027428;28;20400;-64
2023/05/16 01:19:31;;;;;;;15.90;2.90;;;;;;;12.29;58.70;101821.91;5014174;28;19921;-64
2023/05/16 01:22:04;;;;;;;13.75;2.55;;;;;;;12.18;57.91;101815.28;5020789;28;20062;-64
2023/05/16 01:24:43;;;;;;;13.63;2.83;;;;;;;12.13;58.32;101822.63;5011222;28;20056;-63
2023/05/16 01:27:10;;;;;;;16.13;3.13;;;;;;;12.11;58.35;101820.09;5014216;28;20421;-64
2023/05/16 01:29:36;;;;;;;15.23;3.05;;;;;;;12.08;57.88;101825.31;5026115;28;20057;-63
2023/05/16 01:32:01;;;;;;;14.82;2.90;;;;;;;12.01;57.94;101817.06;5014073;28;20060;-63
2023/05/16 01:34:26;;;;;;;13.23;3.20;;;;;;;12.05;58.23;101821.03;5014570;28;20473;-64
2023/05/16 01:37:08;;;;;;;13.65;2.88;;;;;;;11.98;58.49;101826.72;5007385;28;20046;-64
2023/05/16 01:39:58;;;;;;;12.97;2.70;;;;;;;12.01;58.09;101826.25;5011324;28;20084;-63
2023/05/16 01:42:26;;;;;;;16.95;3.28;;;;;;;12.00;58.17;101827.34;5010483;28;20585;-63
2023/05/16 01:45:02;;;;;;;19.30;2.63;;;;;;;11.97;58.25;101818.63;5010263;28;20105;-63
2023/05/16 01:47:30;;;;;;;13.18;2.72;;;;;;;11.94;57.98;101821.88;5010652;28;20026;-63
2023/05/16 01:50:18;;;;;;;12.43;2.90;;;;;;;11.93;58.63;101832.16;5010118;28;20026;-63
2023/05/16 01:52:46;;;;;;;14.27;2.58;;;;;;;11.86;58.22;101828.63;5019164;28;20051;-63
2023/05/16 01:55:33;;;;;;;14.27;2.45;;;;;;;11.86;58.29;101838.91;5014760;28;20048;-63
2023/05/16 01:58:01;;;;;;;11.25;2.53;;;;;;;11.85;57.98;101837.22;5006779;28;20110;-65
2023/05/16 02:00:27;;;;;;;18.20;3.28;;;;;;;11.79;57.86;101833.44;5021967;28;20104;-63
2023/05/16 02:02:52;;;;;;;13.50;2.55;;;;;;;11.77;57.90;101838.38;5015896;28;20128;-64
2023/05/16 02:05:17;;;;;;;17.00;2.83;;;;;;;11.69;58.18;101844.28;5010154;28;20061;-63
2023/05/16 02:07:43;;;;;;;14.65;2.45;;;;;;;11.69;57.80;101849.84;5010163;28;20441;-64
2023/05/16 02:10:09;;;;;;;13.65;3.13;;;;;;;11.67;58.29;101847.31;5010128;28;20041;-63
2023/05/16 02:12:35;;;;;;;13.52;3.10;;;;;;;11.58;58.09;101843.13;5025713;28;20037;-63
2023/05/16 02:15:00;;;;;;;19.65;3.33;;;;;;;11.62;57.98;101849.91;5010361;28;20161;-64
2023/05/16 02:17:26;;;;;;;13.55;2.85;;;;;;;11.63;58.33;101846.06;5017812;28;20477;-64
2023/05/16 02:19:51;;;;;;;14.05;3.03;;;;;;;11.61;58.17;101845.44;5025454;28;20037;-64
2023/05/16 02:22:16;;;;;;;12.52;2.78;;;;;;;11.49;58.19;101848.19;5008875;28;20072;-63
2023/05/16 02:24:42;;;;;;;13.27;2.78;;;;;;;11.42;58.58;101855.75;5017906;28;20041;-64
2023/05/16 02:27:07;;;;;;;15.85;3.25;;;;;;;11.50;58.45;101840.69;5020384;28;20176;-64
2023/05/16 02:29:32;;;;;;;15.02;2.85;;;;;;;11.45;58.36;101846.97;5030542;28;20037;-64
2023/05/16 02:31:57;;;;;;;13.50;3.03;;;;;;;11.47;58.63;101852.28;5018661;28;20477;-63
2023/05/16 02:34:23;;;;;;;11.90;2.85;;;;;;;11.40;58.65;101854.31;5023691;28;20037;-64
2023/05/16 02:36:48;;;;;;;14.30;2.83;;;;;;;11.40;58.60;101852.38;5036919;28;20029;-64
2023/05/16 02:39:13;;;;;;;15.40;2.75;;;;;;;11.35;58.63;101854.16;5033331;28;20056;-64
2023/05/16 02:41:38;;;;;;;11.77;2.53;;;;;;;11.29;58.40;101858.72;5032688;28;20071;-63
2023/05/16 02:44:04;;;;;;;13.68;2.45;;;;;;;11.32;58.63;101858.25;5036848;28;20029;-64
2023/05/16 02:46:33;;;;;;;14.82;2.80;;;;;;;11.34;58.65;101864.41;5035304;28;20029;-64
2023/05/16 02:48:59;;;;;;;15.40;3.13;;;;;;;11.34;58.57;101872.75;5035188;28;20030;-63
2023/05/16 02:51:26;;;;;;;13.20;2.65;;;;;;;11.30;58.39;101875.16;5017255;28;20036;-64
2023/05/16 02:53:51;;;;;;;13.88;2.70;;;;;;;11.28;58.77;101876.50;5015945;28;20037;-63
2023/05/16 02:56:18;;;;;;;14.23;3.08;;;;;;;11.23;58.64;101879.09;5022010;28;20033;-64
2023/05/16 02:58:47;;;;;;;15.60;3.08;;;;;;;11.23;59.06;101876.31;5017584;28;20022;-64
2023/05/16 03:01:12;;;;;;;12.40;2.88;;;;;;;11.21;59.06;101884.91;5017684;28;20025;-64
2023/05/16 03:03:38;;;;;;;12.20;2.92;;;;;;;11.22;58.77;101882.97;5036661;28;20044;-63
2023/05/16 03:06:03;;;;;;;14.10;2.60;;;;;;;11.22;59.03;101885.75;5036965;28;20029;-64
2023/05/16 03:08:28;;;;;;;12.25;2.90;;;;;;;11.18;58.63;101888.13;5035871;28;20045;-64
2023/05/16 03:10:54;;;;;;;11.02;2.70;;;;;;;11.22;58.76;101883.81;5024009;28;20045;-63
2023/05/16 03:13:19;;;;;;;15.38;3.30;;;;;;;11.21;58.80;101889.59;5017016;28;20037;-64
2023/05/16 03:15:45;;;;;;;13.68;2.63;;;;;;;11.22;58.94;101896.84;5015882;28;20046;-63
2023/05/16 03:18:10;;;;;;;14.48;2.60;;;;;;;11.15;59.05;101896.94;5026864;28;20056;-63
2023/05/16 03:20:36;;;;;;;13.23;2.95;;;;;;;11.13;59.23;101903.81;5036961;28;20033;-63
2023/05/16 03:23:02;;;;;;;12.18;2.60;;;;;;;11.10;59.21;101901.50;5035622;28;20040;-64
2023/05/16 03:25:27;;;;;;;13.25;2.70;;;;;;;11.10;59.17;101898.72;5034835;28;20021;-64
2023/05/16 03:27:53;;;;;;;15.52;2.70;;;;;;;11.03;59.27;101905.19;5036978;28;20491;-64
2023/05/16 03:30:18;;;;;;;14.77;2.58;;;;;;;10.96;59.68;101893.28;5035733;28;20451;-63
2023/05/16 03:32:44;;;;;;;13.88;2.58;;;;;;;10.99;59.43;101897.53;5016777;28;20041;-64
2023/05/16 03:35:10;;;;;;;12.88;2.90;;;;;;;10.93;59.63;101904.03;5016407;28;20037;-64
2023/05/16 03:37:36;;;;;;;12.85;2.50;;;;;;;10.94;59.66;101898.25;5016220;28;20100;-64
2023/05/16 03:40:04;;;;;;;10.10;2.53;;;;;;;10.97;59.57;101903.34;5015301;28;20482;-63
2023/05/16 03:42:30;;;;;;;15.95;2.88;;;;;;;10.82;59.57;101906.47;5012585;28;20022;-63
2023/05/16 03:44:55;;;;;;;13.32;2.88;;;;;;;10.77;59.93;101913.81;5013344;28;20046;-64
2023/05/16 03:47:21;;;;;;;15.20;2.72;;;;;;;10.79;59.92;101915.25;5013520;28;20703;-64
2023/05/16 03:49:46;;;;;;;14.02;2.67;;;;;;;10.70;60.21;101919.41;5031380;28;20646;-64
2023/05/16 03:52:11;;;;;;;11.60;2.75;;;;;;;10.75;59.93;101911.25;5020198;28;20045;-64
2023/05/16 03:54:37;;;;;;;15.35;2.97;;;;;;;10.74;60.16;101925.38;5019821;28;20021;-64
2023/05/16 03:57:02;;;;;;;12.93;2.58;;;;;;;10.73;60.17;101924.53;5031833;28;20040;-64
2023/05/16 03:59:27;;;;;;;16.08;3.08;;;;;;;10.69;60.21;101919.63;5032358;28;20079;-64
2023/05/16 04:01:53;;;;;;;13.15;2.60;;;;;;;10.68;60.31;101915.16;5032975;28;20031;-64
2023/05/16 04:04:18;;;;;;;13.90;2.85;;;;;;;10.67;60.34;101921.81;5031414;28;20370;-64
2023/05/16 04:06:43;;;;;;;14.43;2.90;;;;;;;10.63;60.59;101920.56;5013625;28;20041;-64
2023/05/16 04:09:08;;;;;;;11.65;2.72;;;;;;;10.61;60.46;101929.13;5014683;28;20061;-65
2023/05/16 04:11:35;;;;;;;14.00;3.22;;;;;;;10.64;60.58;101930.56;5012020;28;20029;-64
2023/05/16 04:14:00;;;;;;;13.55;3.05;;;;;;;10.70;60.39;101932.47;5012068;28;20034;-64
2023/05/16 04:16:26;;;;;;;10.15;2.78;;;;;;;10.57;60.71;101927.84;5012601;28;20069;-64
2023/05/16 04:18:51;;;;;;;16.17;2.97;;;;;;;10.59;60.59;101934.03;5020617;28;20072;-64
2023/05/16 04:21:17;;;;;;;14.15;2.83;;;;;;;10.65;60.58;101943.38;5015627;28;20026;-64
2023/05/16 04:23:42;;;;;;;16.25;2.97;;;;;;;10.52;60.72;101933.25;5014514;28;20042;-63
2023/05/16 04:26:07;;;;;;;10.77;2.63;;;;;;;10.47;60.68;101947.81;5009243;28;20037;-64
2023/05/16 04:28:33;;;;;;;14.18;2.85;;;;;;;10.53;60.82;101944.13;5011928;28;20029;-64
2023/05/16 04:30:58;;;;;;;14.23;3.10;;;;;;;10.50;61.09;101950.13;5012380;28;20100;-64
2023/05/16 04:33:23;;;;;;;13.43;2.53;;;;;;;10.55;60.97;101946.69;5011014;28;20017;-64
2023/05/16 04:35:49;;;;;;;13.07;3.22;;;;;;;10.50;60.63;101950.13;5012677;28;20534;-63
2023/05/16 04:38:14;;;;;;;15.10;2.95;;;;;;;10.46;60.81;101961.91;5014431;28;20036;-64
2023/05/16 04:40:42;;;;;;;12.88;2.80;;;;;;;10.46;61.22;101957.22;5011420;28;20458;-64
2023/05/16 04:43:08;;;;;;;17.63;3.08;;;;;;;10.49;61.08;101962.31;5010034;28;20504;-64
2023/05/16 04:45:33;;;;;;;17.75;3.65;;;;;;;10.57;61.04;101962.03;5028643;28;20036;-64
2023/05/16 04:48:00;;;;;;;14.88;3.05;;;;;;;10.51;61.29;101975.97;5029369;28;20029;-64
2023/05/16 04:50:25;;;;;;;11.73;2.75;;;;;;;10.55;61.21;101971.66;5023839;28;20466;-64
2023/05/16 04:52:50;;;;;;;11.07;3.00;;;;;;;10.62;61.26;101966.91;5011732;28;20034;-64
2023/05/16 04:55:16;;;;;;;14.82;3.40;;;;;;;10.61;61.09;101976.31;5011157;28;20048;-64
2023/05/16 04:57:41;;;;;;;10.23;2.83;;;;;;;10.62;61.13;101978.00;5012402;28;20057;-64
2023/05/16 05:00:09;;;;;;;12.02;2.63;;;;;;;10.61;61.32;101981.88;5017645;28;20088;-64
2023/05/16 05:02:34;;;;;;;13.10;2.78;;;;;;;10.71;61.02;101984.13;5017796;28;20053;-63
2023/05/16 05:04:59;;;;;;;12.38;2.92;;;;;;;10.65;61.18;101988.69;5026509;28;20061;-64
2023/05/16 05:07:27;;;;;;;11.05;2.97;;;;;;;10.68;61.17;101987.34;5030710;28;20028;-64
2023/05/16 05:09:54;;;;;;;13.77;3.40;;;;;;;10.72;61.09;101989.44;5021765;28;20117;-64
2023/05/16 05:12:20;;;;;;;14.07;2.60;;;;;;;10.70;61.09;101983.28;5020076;28;20017;-64
2023/05/16 05:14:45;;;;;;;19.38;3.65;;;;;;;10.72;61.27;101975.56;5029641;28;20080;-64
2023/05/16 05:17:11;;;;;;;9.70;2.83;;;;;;;10.75;61.30;101971.50;5021770;28;20041;-64
2023/05/16 05:19:36;;;;;;;14.13;3.17;;;;;;;10.84;61.08;101978.44;5028523;28;20064;-64
2023/05/16 05:22:01;;;;;;;10.50;2.75;;;;;;;10.84;61.17;101981.22;5017168;28;20389;-65
2023/05/16 05:24:27;;;;;;;12.80;3.38;;;;;;;10.86;61.23;101981.03;5021068;28;20466;-64
2023/05/16 05:26:52;;;;;;;12.57;2.95;;;;;;;10.90;61.04;101985.03;5015535;28;20033;-65
2023/05/16 05:29:17;;;;;;;13.38;3.08;;;;;;;10.91;61.00;101990.34;5011064;28;20112;-64
2023/05/16 05:31:42;;;;;;;14.25;2.60;;;;;;;10.92;61.55;101989.28;5030275;28;20730;-64
2023/05/16 05:34:08;;;;;;;13.35;2.92;;;;;;;11.01;60.67;101987.94;5031296;28;20029;-65
2023/05/16 05:36:33;;;;;;;12.73;2.70;;;;;;;11.10;60.29;101990.41;5030406;28;20121;-64
2023/05/16 05:38:58;;;;;;;12.18;3.10;;;;;;;11.15;60.24;101994.19;5030720;28;20059;-64
2023/05/16 05:41:24;;;;;;;11.38;2.92;;;;;;;11.22;60.29;101994.13;5030015;28;20050;-64
2023/05/16 05:43:49;;;;;;;12.75;2.97;;;;;;;11.26;60.08;102001.78;5021072;28;20060;-64
2023/05/16 05:46:16;;;;;;;8.38;2.78;;;;;;;11.31;59.88;102009.41;5011316;28;20030;-64
2023/05/16 05:48:41;;;;;;;12.13;2.55;;;;;;;11.37;60.10;102002.94;5010235;28;20084;-64
2023/05/16 05:51:07;;;;;;;9.43;2.85;;;;;;;11.49;59.49;102000.25;5011648;28;20042;-63
2023/05/16 05:53:33;;;;;;;17.45;3.10;;;;;;;11.54;59.47;102003.19;5014955;28;20053;-63
2023/05/16 05:55:59;;;;;;;12.15;2.33;;;;;;;11.68;59.18;102012.22;5020100;28;20034;-65
2023/05/16 05:58:25;;;;;;;11.98;2.67;;;;;;;11.75;59.01;102007.41;5009280;28;20397;-65
2023/05/16 06:00:50;;;;;;;12.75;2.35;;;;;;;11.85;58.19;102010.53;5010343;28;20534;-66
2023/05/16 06:03:15;;;;;;;9.77;2.40;;;;;;;11.94;57.90;102009.13;5017388;28;20087;-66
2023/05/16 06:05:41;;;;;;;9.52;2.40;;;;;;;12.11;57.84;102011.28;5015196;28;20029;-64
2023/05/16 06:08:06;;;;;;;12.38;2.67;;;;;;;12.23;59.04;102013.03;5013575;28;20040;-63
2023/05/16 06:10:31;;;;;;;9.73;2.33;;;;;;;12.29;57.64;102022.34;5020072;28;20547;-64
2023/05/16 06:12:57;;;;;;;9.10;2.25;;;;;;;12.37;57.19;102019.22;5010286;28;20026;-64
2023/05/16 06:15:24;;;;;;;15.43;2.80;;;;;;;12.38;57.10;102023.75;5019573;28;20042;-62
2023/05/16 06:17:49;;;;;;;10.13;2.15;;;;;;;12.43;57.00;102020.25;5024530;28;20053;-64
2023/05/16 06:20:15;;;;;;;14.02;2.08;;;;;;;12.47;56.18;102025.09;5012590;28;20064;-64
2023/05/16 06:22:40;;;;;;;11.52;2.58;;;;;;;12.53;56.92;102032.47;5008534;28;20045;-64
2023/05/16 06:25:06;;;;;;;19.00;2.92;;;;;;;12.61;56.11;102036.88;5024774;28;20068;-64
2023/05/16 06:27:31;;;;;;;16.20;2.60;;;;;;;12.69;55.98;102035.69;5019998;28;20036;-64
2023/05/16 06:29:57;;;;;;;12.60;2.60;;;;;;;12.73;55.93;102032.19;5011971;28;20108;-65
2023/05/16 06:32:22;;;;;;;14.82;2.55;;;;;;;12.78;55.18;102037.06;5023983;28;20053;-62
2023/05/16 06:34:48;;;;;;;9.93;2.17;;;;;;;12.84;55.63;102033.28;5012784;28;20026;-65
2023/05/16 06:37:13;;;;;;;10.73;2.33;;;;;;;12.88;55.51;102034.50;5020249;28;20037;-65
2023/05/16 06:39:39;;;;;;;12.43;2.10;;;;;;;12.92;54.78;102032.09;5009671;28;20765;-65
2023/05/16 06:42:04;;;;;;;11.25;2.55;;;;;;;12.98;54.90;102032.00;5016723;28;20095;-67
2023/05/16 06:44:29;;;;;;;14.32;2.55;;;;;;;13.07;54.72;102040.00;5013573;28;20030;-66
2023/05/16 06:46:55;;;;;;;12.27;2.50;;;;;;;13.12;54.17;102038.16;5028101;28;20033;-67
2023/05/16 06:49:20;;;;;;;10.57;2.55;;;;;;;13.14;55.26;102037.94;5009579;28;20033;-67
2023/05/16 06:51:45;;;;;;;14.68;2.50;;;;;;;13.18;54.25;102026.06;5023471;28;20026;-66
2023/05/16 06:54:11;;;;;;;9.48;2.10;;;;;;;13.22;53.52;102032.84;5010776;28;20025;-65
2023/05/16 06:56:36;;;;;;;9.30;2.22;;;;;;;13.34;53.94;102040.41;5016867;28;20489;-67
2023/05/16 06:59:01;;;;;;;9.60;2.25;;;;;;;13.34;53.11;102030.09;5009344;28;20041;-65
2023/05/16 07:01:27;;;;;;;15.75;2.22;;;;;;;13.41;52.91;102032.78;5009251;28;20414;-64
2023/05/16 07:03:52;;;;;;;10.50;1.80;;;;;;;13.48;53.45;102033.50;5017368;28;20025;-66
2023/05/16 07:06:18;;;;;;;15.05;2.30;;;;;;;13.42;52.60;102043.66;5013292;28;20037;-65
2023/05/16 07:08:43;;;;;;;8.35;2.10;;;;;;;13.38;52.37;102036.03;5008334;28;20076;-64
2023/05/16 07:11:10;;;;;;;9.90;1.92;;;;;;;13.40;52.42;102031.06;5011800;28;20030;-65
2023/05/16 07:13:35;;;;;;;8.27;1.77;;;;;;;13.30;52.10;102037.25;5018160;28;20508;-64
2023/05/16 07:16:01;;;;;;;9.13;2.03;;;;;;;13.39;52.49;102038.56;5016400;28;20038;-64
2023/05/16 07:18:26;;;;;;;8.05;1.75;;;;;;;13.38;52.30;102039.66;5015679;28;20108;-64
2023/05/16 07:20:51;;;;;;;7.63;1.67;;;;;;;13.41;52.79;102046.72;5012776;28;20069;-65
2023/05/16 07:23:17;;;;;;;9.73;2.03;;;;;;;13.40;52.21;102043.09;5013820;28;20044;-64
2023/05/16 07:25:42;;;;;;;9.75;1.75;;;;;;;13.46;52.00;102038.47;5016558;28;20163;-65
2023/05/16 07:28:07;;;;;;;8.35;1.92;;;;;;;13.61;51.59;102037.97;5029565;28;20482;-65
2023/05/16 07:30:33;;;;;;;8.70;1.63;;;;;;;13.74;50.99;102051.63;5020320;28;20030;-64
2023/05/16 07:32:58;;;;;;;8.65;1.58;;;;;;;13.81;51.19;102045.94;5032660;28;20040;-65
2023/05/16 07:35:24;;;;;;;8.50;1.65;;;;;;;13.84;50.80;102059.41;5023129;28;20034;-64
2023/05/16 07:37:50;;;;;;;10.57;1.67;;;;;;;13.87;50.18;102059.78;5011536;28;20048;-65
2023/05/16 07:40:17;;;;;;;10.60;1.75;;;;;;;13.96;49.99;102057.44;5012263;28;20025;-64
2023/05/16 07:42:42;;;;;;;11.07;1.40;;;;;;;14.02;48.65;102053.63;5012419;28;20069;-65
2023/05/16 07:45:08;;;;;;;6.60;1.20;;;;;;;14.02;46.98;102059.22;5012206;28;20061;-64
2023/05/16 07:47:33;;;;;;;6.18;1.27;;;;;;;13.96;46.62;102057.44;5012384;28;20467;-65
2023/05/16 07:49:58;;;;;;;4.85;1.60;;;;;;;14.00;47.08;102062.28;5011645;28;20076;-64
2023/05/16 07:52:24;;;;;;;6.53;1.40;;;;;;;13.98;46.85;102060.81;5011361;28;20034;-64
2023/05/16 07:54:49;;;;;;;9.13;1.67;;;;;;;13.97;47.66;102056.34;5014669;28;20021;-64
2023/05/16 07:57:15;;;;;;;6.60;1.63;;;;;;;13.90;47.47;102053.66;5011210;28;20026;-64
2023/05/16 07:59:41;;;;;;;6.18;1.60;;;;;;;13.84;47.96;102056.63;5012816;28;20458;-64
2023/05/16 08:02:06;;;;;;;5.45;1.67;;;;;;;13.78;48.45;102061.22;5012237;28;20041;-64
2023/05/16 08:04:32;;;;;;;6.93;1.40;;;;;;;13.72;48.61;102060.28;5011082;28;20513;-65
2023/05/16 08:06:57;;;;;;;6.03;1.33;;;;;;;13.68;48.77;102061.00;5011986;28;20560;-64
2023/05/16 08:09:22;;;;;;;6.45;1.60;;;;;;;13.63;49.24;102060.88;5011789;28;20080;-65
2023/05/16 08:11:47;;;;;;;4.63;1.70;;;;;;;13.69;50.00;102054.31;5016083;28;20022;-65
2023/05/16 08:14:13;;;;;;;9.77;1.58;;;;;;;13.69;49.95;102066.34;5031856;28;20454;-64
2023/05/16 08:16:38;;;;;;;9.02;2.17;;;;;;;13.63;50.98;102066.44;5031956;28;20056;-64
2023/05/16 08:19:05;;;;;;;4.88;1.58;;;;;;;13.73;50.76;102061.13;5031750;28;20136;-65
2023/05/16 08:21:31;;;;;;;9.25;1.90;;;;;;;13.94;50.98;102066.03;5026620;28;20470;-64
2023/05/16 08:23:56;;;;;;;8.63;1.70;;;;;;;14.07;49.16;102064.94;5010299;28;20072;-65
2023/05/16 08:26:22;;;;;;;5.70;1.60;;;;;;;14.21;49.35;102073.88;5011668;28;20038;-65
2023/05/16 08:28:47;;;;;;;7.03;1.77;;;;;;;14.21;49.34;102068.28;5014265;28;20032;-65
2023/05/16 08:31:13;;;;;;;5.40;1.85;;;;;;;14.01;48.80;102065.91;5030947;28;20029;-64
2023/05/16 08:33:38;;;;;;;6.70;1.60;;;;;;;13.87;48.66;102067.25;5031988;28;20029;-64
2023/05/16 08:36:05;;;;;;;5.75;1.45;;;;;;;13.84;48.59;102067.78;5031533;28;20021;-64
2023/05/16 08:38:30;;;;;;;5.53;1.40;;;;;;;13.92;48.78;102062.66;5022430;28;20030;-64
2023/05/16 08:40:55;;;;;;;10.60;1.50;;;;;;;14.09;48.99;102054.34;5031105;28;20029;-65
2023/05/16 08:43:21;;;;;;;7.13;1.27;;;;;;;14.23;48.20;102054.94;5031080;28;20034;-65
2023/05/16 08:45:46;;;;;;;7.18;1.38;;;;;;;14.42;47.65;102061.13;5018640;28;20022;-64
2023/05/16 08:48:14;;;;;;;6.18;1.50;;;;;;;14.41;48.13;102054.72;5016837;28;20119;-64
2023/05/16 08:50:41;;;;;;;4.88;1.70;;;;;;;14.47;47.94;102061.25;5031288;28;20228;-64
2023/05/16 08:53:08;;;;;;;7.30;1.40;;;;;;;14.60;48.08;102048.97;5012876;28;20049;-62
2023/05/16 08:55:35;;;;;;;10.15;1.60;;;;;;;14.64;48.35;102047.34;5018418;28;20044;-64
2023/05/16 08:58:00;;;;;;;6.60;1.40;;;;;;;15.00;54.72;102051.63;5029437;28;20087;-63
2023/05/16 09:00:26;;;;;;;6.43;1.58;;;;;;;15.20;58.45;102043.56;5007294;28;20021;-63
2023/05/16 09:02:52;;;;;;;16.80;7.75;;;;;;;15.35;56.37;102054.16;5009115;28;20041;-62
2023/05/16 09:05:17;;;;;;;9.65;2.78;;;;;;;15.44;52.17;102047.03;5007141;28;20044;-63
2023/05/16 09:07:44;;;;;;;13.32;5.57;;;;;;;15.73;54.67;102049.72;5010009;28;20034;-62
2023/05/16 09:10:11;;;;;;;23.02;8.30;;;;;;;15.83;56.36;102051.78;5009768;28;20044;-62
2023/05/16 09:12:38;;;;;;;11.63;2.92;;;;;;;15.77;53.22;102048.09;5015844;28;20111;-63
2023/05/16 09:15:06;;;;;;;21.30;4.70;;;;;;;15.88;53.79;102049.94;5025322;28;20054;-63
2023/05/16 09:17:37;;;;;;;12.18;3.80;;;;;;;16.01;53.56;102056.25;5021752;28;20041;-63
2023/05/16 09:20:16;;;;;;;14.85;6.85;;;;;;;16.13;51.87;102059.75;5024839;28;20041;-63
2023/05/16 09:22:55;;;;;;;102.40;66.72;;;;;;;16.25;53.64;102049.25;5008303;28;20033;-63
2023/05/16 09:25:22;;;;;;;30.45;14.38;;;;;;;16.24;50.29;102049.53;5008992;28;20109;-62
2023/05/16 09:27:51;;;;;;;30.13;12.93;;;;;;;16.31;50.59;102051.03;5015728;28;20037;-62
2023/05/16 09:30:21;;;;;;;18.38;8.23;;;;;;;16.22;47.51;102044.16;5020808;28;20030;-63
2023/05/16 09:32:46;;;;;;;22.85;10.30;;;;;;;16.22;47.25;102046.13;5024143;28;20021;-64
2023/05/16 09:35:16;;;;;;;15.93;6.93;;;;;;;16.32;45.29;102047.09;5007587;28;20481;-63
2023/05/16 09:37:47;;;;;;;10.38;3.90;;;;;;;16.31;45.44;102041.75;5013128;28;20041;-63
2023/05/16 09:40:13;;;;;;;13.37;5.37;;;;;;;16.42;46.80;102049.16;5024962;28;20436;-63
2023/05/16 09:42:38;;;;;;;10.43;4.90;;;;;;;16.62;47.44;102045.72;5023460;28;20033;-63
2023/05/16 09:45:04;;;;;;;9.90;3.40;;;;;;;16.71;46.62;102038.56;5019414;28;20814;-62
2023/05/16 09:47:29;;;;;;;8.45;2.80;;;;;;;16.72;44.87;102043.03;5012340;28;20655;-63
2023/05/16 09:49:55;;;;;;;10.10;2.42;;;;;;;16.76;45.95;102049.84;5007145;28;20552;-63
2023/05/16 09:52:21;;;;;;;6.32;2.22;;;;;;;16.73;45.21;102049.50;5016299;28;20030;-63
2023/05/16 09:54:48;;;;;;;3.88;1.48;;;;;;;16.42;44.07;102055.59;5008366;28;20116;-64
2023/05/16 09:57:20;;;;;;;6.57;1.40;;;;;;;16.15;45.10;102054.72;5007044;28;20408;-64
2023/05/16 09:59:46;;;;;;;2.90;1.50;;;;;;;16.04;45.02;102053.78;5012540;28;20030;-63
2023/05/16 10:02:12;;;;;;;5.60;1.45;;;;;;;16.00;45.67;102049.81;5022369;28;20496;-64
2023/05/16 10:04:38;;;;;;;9.05;1.40;;;;;;;16.00;45.42;102047.00;5023630;28;20033;-64
2023/05/16 10:07:05;;;;;;;5.05;1.38;;;;;;;16.08;45.67;102049.34;5004373;28;20754;-61
2023/05/16 10:09:35;;;;;;;5.22;1.60;;;;;;;16.13;44.67;102056.97;5008141;28;20386;-64
2023/05/16 10:12:03;;;;;;;9.30;1.58;;;;;;;16.13;44.44;102041.00;5001362;28;20157;-63
2023/05/16 10:14:30;;;;;;;6.70;1.50;;;;;;;16.04;43.64;102048.16;5012727;28;20777;-65
2023/05/16 10:16:56;;;;;;;3.80;1.27;;;;;;;15.98;42.58;102056.75;5020630;28;20030;-64
2023/05/16 10:19:24;;;;;;;7.43;1.25;;;;;;;15.92;41.75;102051.09;5010314;28;20030;-65
2023/05/16 10:21:53;;;;;;;6.93;1.30;;;;;;;15.97;41.64;102046.66;5019781;28;20032;-64
2023/05/16 10:24:27;;;;;;;5.63;1.30;;;;;;;16.11;43.12;102040.44;5012427;28;20026;-64
2023/05/16 10:26:53;;;;;;;6.60;1.42;;;;;;;16.17;41.84;102035.72;5018691;28;20037;-65
2023/05/16 10:29:19;;;;;;;4.60;1.25;;;;;;;16.16;41.31;102043.28;5019516;28;20496;-64
2023/05/16 10:31:46;;;;;;;4.72;1.20;;;;;;;16.05;41.49;102047.06;5028929;28;20025;-64
2023/05/16 10:34:11;;;;;;;7.75;1.38;;;;;;;15.92;41.18;102055.84;5021128;28;20394;-65
2023/05/16 10:36:38;;;;;;;5.57;1.23;;;;;;;15.79;41.51;102059.03;5011099;28;20025;-66
2023/05/16 10:39:03;;;;;;;5.45;1.30;;;;;;;15.84;42.17;102048.75;5010602;28;20068;-65
2023/05/16 10:41:30;;;;;;;6.50;1.20;;;;;;;15.99;43.02;102042.47;5008108;28;20474;-66
2023/05/16 10:43:57;;;;;;;5.05;1.00;;;;;;;16.13;42.38;102038.19;5013151;28;20044;-66
2023/05/16 10:46:23;;;;;;;3.80;1.40;;;;;;;16.11;40.97;102046.03;5025432;28;20104;-65
2023/05/16 10:48:49;;;;;;;3.10;1.08;;;;;;;16.11;41.24;102047.97;5015423;28;20037;-65
2023/05/16 10:51:35;;;;;;;4.60;1.10;;;;;;;16.06;42.44;102047.91;5013266;28;20532;-65
2023/05/16 10:54:09;;;;;;;5.38;1.30;;;;;;;15.92;41.90;102048.31;5018380;28;20021;-65
2023/05/16 10:56:35;;;;;;;6.15;1.33;;;;;;;15.86;41.60;102046.53;5020808;28;20052;-65
2023/05/16 10:59:01;;;;;;;6.95;1.23;;;;;;;15.97;42.02;102047.50;5012249;28;20026;-65
2023/05/16 11:01:29;;;;;;;4.90;1.20;;;;;;;16.05;41.76;102049.84;5013712;28;20026;-67
2023/05/16 11:04:03;;;;;;;4.07;1.30;;;;;;;16.13;41.45;102035.41;5013462;28;20412;-65
2023/05/16 11:06:34;;;;;;;8.35;1.30;;;;;;;16.13;42.09;102049.41;5014193;28;20393;-66
2023/05/16 11:09:03;;;;;;;3.92;1.48;;;;;;;15.97;42.32;102049.47;5022215;28;20021;-65
2023/05/16 11:11:47;;;;;;;6.75;1.48;;;;;;;16.03;42.92;102052.06;5033166;28;20151;-64
2023/05/16 11:14:24;;;;;;;5.32;1.20;;;;;;;16.12;43.35;102055.28;5018422;28;20037;-64
2023/05/16 11:16:51;;;;;;;5.70;1.30;;;;;;;16.21;42.28;102048.09;5018359;28;20033;-69